sensor_id;sensor_type;location;lat;lon;timestamp;temperature;humidity
27900;DHT22;15243;50.726;7.080;2023-03-29T00:02:12;5.50;99.90
27900;DHT22;15243;50.726;7.080;2023-03-29T00:04:39;5.50;99.90
27900;DHT22;15243;50.726;7.080;2023-03-29T00:07:07;5.60;99.90
27900;DHT22;15243;50.726;7.080;2023-03-29T00:09:34;5.60;99.90
27900;DHT22;15243;50.726;7.080;2023-03-29T00:12:01;5.60;99.90
27900;DHT22;15243;50.726;7.080;2023-03-29T00:14:29;5.70;99.90
27900;DHT22;15243;50.726;7.080;2023-03-29T00:16:57;5.70;99.90
27900;DHT22;15243;50.726;7.080;2023-03-29T00:19:25;5.60;99.90
27900;DHT22;15243;50.726;7.080;2023-03-29T00:21:52;5.60;99.90
27900;DHT22;15243;50.726;7.080;2023-03-29T00:24:19;5.70;99.90
27900;DHT22;15243;50.726;7.080;2023-03-29T00:26:47;5.70;99.90
27900;DHT22;15243;50.726;7.080;2023-03-29T00:29:14;5.70;99.90
27900;DHT22;15243;50.726;7.080;2023-03-29T00:31:41;5.60;99.90
27900;DHT22;15243;50.726;7.080;2023-03-29T00:34:10;5.60;99.90
27900;DHT22;15243;50.726;7.080;2023-03-29T00:36:37;5.60;99.90
27900;DHT22;15243;50.726;7.080;2023-03-29T00:39:06;5.60;99.90
27900;DHT22;15243;50.726;7.080;2023-03-29T00:41:33;5.60;99.90
27900;DHT22;15243;50.726;7.080;2023-03-29T00:44:02;5.60;99.90
27900;DHT22;15243;50.726;7.080;2023-03-29T00:46:30;5.60;99.90
27900;DHT22;15243;50.726;7.080;2023-03-29T00:49:01;5.60;99.90
27900;DHT22;15243;50.726;7.080;2023-03-29T00:51:32;5.60;99.90
27900;DHT22;15243;50.726;7.080;2023-03-29T00:54:02;5.60;99.90
27900;DHT22;15243;50.726;7.080;2023-03-29T00:56:36;5.60;99.90
27900;DHT22;15243;50.726;7.080;2023-03-29T01:04:22;5.60;99.90
27900;DHT22;15243;50.726;7.080;2023-03-29T01:07:33;5.70;99.90
27900;DHT22;15243;50.726;7.080;2023-03-29T01:12:36;5.70;99.90
27900;DHT22;15243;50.726;7.080;2023-03-29T01:15:09;5.70;99.90
27900;DHT22;15243;50.726;7.080;2023-03-29T01:17:38;5.80;99.90
27900;DHT22;15243;50.726;7.080;2023-03-29T01:20:20;5.80;99.90
27900;DHT22;15243;50.726;7.080;2023-03-29T01:22:57;5.80;99.90
27900;DHT22;15243;50.726;7.080;2023-03-29T01:28:19;5.80;99.90
27900;DHT22;15243;50.726;7.080;2023-03-29T01:30:52;5.80;99.90
27900;DHT22;15243;50.726;7.080;2023-03-29T01:33:24;5.90;99.90
27900;DHT22;15243;50.726;7.080;2023-03-29T01:36:11;5.90;99.90
27900;DHT22;15243;50.726;7.080;2023-03-29T01:38:45;5.90;99.90
27900;DHT22;15243;50.726;7.080;2023-03-29T01:41:14;5.90;99.90
27900;DHT22;15243;50.726;7.080;2023-03-29T01:46:31;5.90;99.90
27900;DHT22;15243;50.726;7.080;2023-03-29T01:49:04;5.90;99.90
27900;DHT22;15243;50.726;7.080;2023-03-29T01:51:41;5.90;99.90
27900;DHT22;15243;50.726;7.080;2023-03-29T01:54:14;5.90;99.90
27900;DHT22;15243;50.726;7.080;2023-03-29T01:56:45;6.00;99.90
27900;DHT22;15243;50.726;7.080;2023-03-29T01:59:20;6.10;99.90
27900;DHT22;15243;50.726;7.080;2023-03-29T02:01:51;6.20;99.90
27900;DHT22;15243;50.726;7.080;2023-03-29T02:04:26;6.30;99.90
27900;DHT22;15243;50.726;7.080;2023-03-29T02:06:56;6.30;99.90
27900;DHT22;15243;50.726;7.080;2023-03-29T02:09:25;6.30;99.90
27900;DHT22;15243;50.726;7.080;2023-03-29T02:11:56;6.30;99.90
27900;DHT22;15243;50.726;7.080;2023-03-29T02:14:24;6.30;99.90
27900;DHT22;15243;50.726;7.080;2023-03-29T02:16:51;6.40;99.90
27900;DHT22;15243;50.726;7.080;2023-03-29T02:19:18;6.30;99.90
27900;DHT22;15243;50.726;7.080;2023-03-29T02:22:26;6.30;99.90
27900;DHT22;15243;50.726;7.080;2023-03-29T02:24:56;6.20;99.90
27900;DHT22;15243;50.726;7.080;2023-03-29T02:27:26;6.20;99.90
27900;DHT22;15243;50.726;7.080;2023-03-29T02:29:55;6.10;99.90
27900;DHT22;15243;50.726;7.080;2023-03-29T02:32:50;6.20;99.90
27900;DHT22;15243;50.726;7.080;2023-03-29T02:38:02;6.10;99.90
27900;DHT22;15243;50.726;7.080;2023-03-29T02:40:30;6.20;99.90
27900;DHT22;15243;50.726;7.080;2023-03-29T02:43:00;6.20;99.90
27900;DHT22;15243;50.726;7.080;2023-03-29T02:45:29;6.20;99.90
27900;DHT22;15243;50.726;7.080;2023-03-29T02:48:04;6.20;99.90
27900;DHT22;15243;50.726;7.080;2023-03-29T02:50:38;6.20;99.90
27900;DHT22;15243;50.726;7.080;2023-03-29T02:53:27;6.20;99.90
27900;DHT22;15243;50.726;7.080;2023-03-29T02:55:55;6.20;99.90
27900;DHT22;15243;50.726;7.080;2023-03-29T02:58:23;6.20;99.90
27900;DHT22;15243;50.726;7.080;2023-03-29T03:00:52;6.30;99.90
27900;DHT22;15243;50.726;7.080;2023-03-29T03:03:19;6.40;99.90
27900;DHT22;15243;50.726;7.080;2023-03-29T03:05:47;6.40;99.90
27900;DHT22;15243;50.726;7.080;2023-03-29T03:08:15;6.50;99.90
27900;DHT22;15243;50.726;7.080;2023-03-29T03:10:42;6.50;99.90
27900;DHT22;15243;50.726;7.080;2023-03-29T03:13:09;6.40;99.90
27900;DHT22;15243;50.726;7.080;2023-03-29T03:15:35;6.40;99.90
27900;DHT22;15243;50.726;7.080;2023-03-29T03:18:03;6.40;99.90
27900;DHT22;15243;50.726;7.080;2023-03-29T03:20:30;6.40;99.90
27900;DHT22;15243;50.726;7.080;2023-03-29T03:22:57;6.40;99.90
27900;DHT22;15243;50.726;7.080;2023-03-29T03:25:24;6.50;99.90
27900;DHT22;15243;50.726;7.080;2023-03-29T03:27:51;6.50;99.90
27900;DHT22;15243;50.726;7.080;2023-03-29T03:30:18;6.50;99.90
27900;DHT22;15243;50.726;7.080;2023-03-29T03:32:46;6.50;99.90
27900;DHT22;15243;50.726;7.080;2023-03-29T03:35:15;6.50;99.90
27900;DHT22;15243;50.726;7.080;2023-03-29T03:37:42;6.50;99.90
27900;DHT22;15243;50.726;7.080;2023-03-29T03:40:09;6.50;99.90
27900;DHT22;15243;50.726;7.080;2023-03-29T03:42:38;6.60;99.90
27900;DHT22;15243;50.726;7.080;2023-03-29T03:45:06;6.60;99.90
27900;DHT22;15243;50.726;7.080;2023-03-29T03:47:34;6.50;99.90
27900;DHT22;15243;50.726;7.080;2023-03-29T03:50:04;6.50;99.90
27900;DHT22;15243;50.726;7.080;2023-03-29T03:52:32;6.50;99.90
27900;DHT22;15243;50.726;7.080;2023-03-29T03:54:58;6.60;99.90
27900;DHT22;15243;50.726;7.080;2023-03-29T03:57:25;6.50;99.90
27900;DHT22;15243;50.726;7.080;2023-03-29T03:59:52;6.60;99.90
27900;DHT22;15243;50.726;7.080;2023-03-29T04:02:19;6.70;99.90
27900;DHT22;15243;50.726;7.080;2023-03-29T04:04:46;6.70;99.90
27900;DHT22;15243;50.726;7.080;2023-03-29T04:07:13;6.60;99.90
27900;DHT22;15243;50.726;7.080;2023-03-29T04:09:40;6.70;99.90
27900;DHT22;15243;50.726;7.080;2023-03-29T04:12:08;6.70;99.90
27900;DHT22;15243;50.726;7.080;2023-03-29T04:14:35;6.70;99.90
27900;DHT22;15243;50.726;7.080;2023-03-29T04:17:03;6.70;99.90
27900;DHT22;15243;50.726;7.080;2023-03-29T04:19:30;6.70;99.90
27900;DHT22;15243;50.726;7.080;2023-03-29T04:21:57;6.80;99.90
27900;DHT22;15243;50.726;7.080;2023-03-29T04:24:23;6.80;99.90
27900;DHT22;15243;50.726;7.080;2023-03-29T04:26:50;6.80;99.90
27900;DHT22;15243;50.726;7.080;2023-03-29T04:29:17;6.70;99.90
27900;DHT22;15243;50.726;7.080;2023-03-29T04:31:44;6.80;99.90
27900;DHT22;15243;50.726;7.080;2023-03-29T04:34:11;6.80;99.90
27900;DHT22;15243;50.726;7.080;2023-03-29T04:36:38;6.90;99.90
27900;DHT22;15243;50.726;7.080;2023-03-29T04:39:05;6.90;99.90
27900;DHT22;15243;50.726;7.080;2023-03-29T04:41:33;6.90;99.90
27900;DHT22;15243;50.726;7.080;2023-03-29T04:44:00;6.80;99.90
27900;DHT22;15243;50.726;7.080;2023-03-29T04:46:28;6.80;99.90
27900;DHT22;15243;50.726;7.080;2023-03-29T04:48:55;6.80;99.90
27900;DHT22;15243;50.726;7.080;2023-03-29T04:51:23;6.80;99.90
27900;DHT22;15243;50.726;7.080;2023-03-29T04:53:50;6.90;99.90
27900;DHT22;15243;50.726;7.080;2023-03-29T04:56:17;6.80;99.90
27900;DHT22;15243;50.726;7.080;2023-03-29T04:58:44;6.90;99.90
27900;DHT22;15243;50.726;7.080;2023-03-29T05:01:10;6.90;99.90
27900;DHT22;15243;50.726;7.080;2023-03-29T05:03:37;6.90;99.90
27900;DHT22;15243;50.726;7.080;2023-03-29T05:06:06;7.00;99.90
27900;DHT22;15243;50.726;7.080;2023-03-29T05:08:35;6.90;99.90
27900;DHT22;15243;50.726;7.080;2023-03-29T05:11:06;6.90;99.90
27900;DHT22;15243;50.726;7.080;2023-03-29T05:13:34;6.90;99.90
27900;DHT22;15243;50.726;7.080;2023-03-29T05:16:02;6.90;99.90
27900;DHT22;15243;50.726;7.080;2023-03-29T05:18:30;6.80;99.90
27900;DHT22;15243;50.726;7.080;2023-03-29T05:20:58;6.80;99.90
27900;DHT22;15243;50.726;7.080;2023-03-29T05:23:26;6.80;99.90
27900;DHT22;15243;50.726;7.080;2023-03-29T05:25:53;6.90;99.90
27900;DHT22;15243;50.726;7.080;2023-03-29T05:28:20;7.00;99.90
27900;DHT22;15243;50.726;7.080;2023-03-29T05:30:58;6.90;99.90
27900;DHT22;15243;50.726;7.080;2023-03-29T05:33:25;6.90;99.90
27900;DHT22;15243;50.726;7.080;2023-03-29T05:36:06;7.00;99.90
27900;DHT22;15243;50.726;7.080;2023-03-29T05:38:34;7.00;99.90
27900;DHT22;15243;50.726;7.080;2023-03-29T05:41:01;6.90;99.90
27900;DHT22;15243;50.726;7.080;2023-03-29T05:43:28;6.90;99.90
27900;DHT22;15243;50.726;7.080;2023-03-29T05:45:55;6.90;99.90
27900;DHT22;15243;50.726;7.080;2023-03-29T05:48:23;6.90;99.90
27900;DHT22;15243;50.726;7.080;2023-03-29T05:50:52;6.90;99.90
27900;DHT22;15243;50.726;7.080;2023-03-29T05:53:20;6.90;99.90
27900;DHT22;15243;50.726;7.080;2023-03-29T05:55:48;6.90;99.90
27900;DHT22;15243;50.726;7.080;2023-03-29T05:58:15;7.00;99.90
27900;DHT22;15243;50.726;7.080;2023-03-29T06:00:47;7.10;99.90
27900;DHT22;15243;50.726;7.080;2023-03-29T06:03:17;7.10;99.90
27900;DHT22;15243;50.726;7.080;2023-03-29T06:05:55;7.20;99.90
27900;DHT22;15243;50.726;7.080;2023-03-29T06:08:22;7.20;99.90
27900;DHT22;15243;50.726;7.080;2023-03-29T06:10:49;7.30;99.90
27900;DHT22;15243;50.726;7.080;2023-03-29T06:13:17;7.30;99.90
27900;DHT22;15243;50.726;7.080;2023-03-29T06:15:44;7.30;99.90
27900;DHT22;15243;50.726;7.080;2023-03-29T06:18:11;7.40;99.90
27900;DHT22;15243;50.726;7.080;2023-03-29T06:20:38;7.40;99.90
27900;DHT22;15243;50.726;7.080;2023-03-29T06:23:05;7.40;99.90
27900;DHT22;15243;50.726;7.080;2023-03-29T06:25:33;7.60;99.90
27900;DHT22;15243;50.726;7.080;2023-03-29T06:28:00;7.60;99.90
27900;DHT22;15243;50.726;7.080;2023-03-29T06:30:28;7.60;99.90
27900;DHT22;15243;50.726;7.080;2023-03-29T06:32:55;7.70;99.90
27900;DHT22;15243;50.726;7.080;2023-03-29T06:35:23;7.70;99.90
27900;DHT22;15243;50.726;7.080;2023-03-29T06:37:50;7.70;99.90
27900;DHT22;15243;50.726;7.080;2023-03-29T06:40:19;7.80;99.90
27900;DHT22;15243;50.726;7.080;2023-03-29T06:42:50;7.80;99.90
27900;DHT22;15243;50.726;7.080;2023-03-29T06:45:23;7.80;99.90
27900;DHT22;15243;50.726;7.080;2023-03-29T06:47:53;7.90;99.90
27900;DHT22;15243;50.726;7.080;2023-03-29T06:50:20;8.00;99.90
27900;DHT22;15243;50.726;7.080;2023-03-29T06:52:49;8.20;99.90
27900;DHT22;15243;50.726;7.080;2023-03-29T06:55:16;8.20;99.90
27900;DHT22;15243;50.726;7.080;2023-03-29T06:57:44;8.30;99.90
27900;DHT22;15243;50.726;7.080;2023-03-29T07:00:11;8.50;99.90
27900;DHT22;15243;50.726;7.080;2023-03-29T07:02:45;8.70;99.90
27900;DHT22;15243;50.726;7.080;2023-03-29T07:05:13;8.70;99.90
27900;DHT22;15243;50.726;7.080;2023-03-29T07:07:43;8.50;99.90
27900;DHT22;15243;50.726;7.080;2023-03-29T07:10:25;8.50;99.90
27900;DHT22;15243;50.726;7.080;2023-03-29T07:12:53;8.40;99.90
27900;DHT22;15243;50.726;7.080;2023-03-29T07:15:20;8.40;99.90
27900;DHT22;15243;50.726;7.080;2023-03-29T07:17:48;8.50;99.90
27900;DHT22;15243;50.726;7.080;2023-03-29T07:20:15;8.50;99.90
27900;DHT22;15243;50.726;7.080;2023-03-29T07:22:43;8.50;99.90
27900;DHT22;15243;50.726;7.080;2023-03-29T07:25:11;8.60;99.90
27900;DHT22;15243;50.726;7.080;2023-03-29T07:27:39;8.80;99.90
27900;DHT22;15243;50.726;7.080;2023-03-29T07:30:10;8.80;99.30
27900;DHT22;15243;50.726;7.080;2023-03-29T07:32:39;8.80;99.90
27900;DHT22;15243;50.726;7.080;2023-03-29T07:35:07;8.80;95.80
27900;DHT22;15243;50.726;7.080;2023-03-29T07:37:35;8.80;99.90
27900;DHT22;15243;50.726;7.080;2023-03-29T07:40:05;8.90;98.90
27900;DHT22;15243;50.726;7.080;2023-03-29T07:42:35;9.00;99.90
27900;DHT22;15243;50.726;7.080;2023-03-29T07:45:05;9.10;99.90
27900;DHT22;15243;50.726;7.080;2023-03-29T07:47:34;9.30;92.10
27900;DHT22;15243;50.726;7.080;2023-03-29T07:50:01;9.40;88.10
27900;DHT22;15243;50.726;7.080;2023-03-29T07:52:30;9.70;94.80
27900;DHT22;15243;50.726;7.080;2023-03-29T07:54:57;9.90;92.50
27900;DHT22;15243;50.726;7.080;2023-03-29T07:57:24;9.80;85.30
27900;DHT22;15243;50.726;7.080;2023-03-29T07:59:56;9.90;68.50
27900;DHT22;15243;50.726;7.080;2023-03-29T08:02:23;10.00;45.00
27900;DHT22;15243;50.726;7.080;2023-03-29T08:04:52;9.80;55.30
27900;DHT22;15243;50.726;7.080;2023-03-29T08:07:19;9.90;71.60
27900;DHT22;15243;50.726;7.080;2023-03-29T08:09:47;10.10;76.90
27900;DHT22;15243;50.726;7.080;2023-03-29T08:12:14;10.10;54.70
27900;DHT22;15243;50.726;7.080;2023-03-29T08:14:41;10.20;61.30
27900;DHT22;15243;50.726;7.080;2023-03-29T08:17:08;10.50;63.20
27900;DHT22;15243;50.726;7.080;2023-03-29T08:19:35;10.90;51.30
27900;DHT22;15243;50.726;7.080;2023-03-29T08:22:02;11.10;33.20
27900;DHT22;15243;50.726;7.080;2023-03-29T08:24:29;11.20;28.60
27900;DHT22;15243;50.726;7.080;2023-03-29T08:26:56;11.20;36.50
27900;DHT22;15243;50.726;7.080;2023-03-29T08:29:24;11.40;14.70
27900;DHT22;15243;50.726;7.080;2023-03-29T08:31:50;11.60;1.00
27900;DHT22;15243;50.726;7.080;2023-03-29T08:34:18;11.60;1.00
27900;DHT22;15243;50.726;7.080;2023-03-29T08:36:45;11.60;1.00
27900;DHT22;15243;50.726;7.080;2023-03-29T08:39:13;11.40;1.00
27900;DHT22;15243;50.726;7.080;2023-03-29T08:47:19;11.30;1.00
27900;DHT22;15243;50.726;7.080;2023-03-29T08:49:53;11.40;14.60
27900;DHT22;15243;50.726;7.080;2023-03-29T08:52:31;11.40;1.00
27900;DHT22;15243;50.726;7.080;2023-03-29T08:55:04;11.30;6.30
27900;DHT22;15243;50.726;7.080;2023-03-29T08:57:44;11.20;1.00
27900;DHT22;15243;50.726;7.080;2023-03-29T09:03:27;11.20;10.80
27900;DHT22;15243;50.726;7.080;2023-03-29T09:06:06;11.30;14.10
27900;DHT22;15243;50.726;7.080;2023-03-29T09:08:39;11.30;19.90
27900;DHT22;15243;50.726;7.080;2023-03-29T09:24:39;12.00;1.00
27900;DHT22;15243;50.726;7.080;2023-03-29T09:32:20;11.80;1.00
27900;DHT22;15243;50.726;7.080;2023-03-29T09:37:50;12.00;1.00
27900;DHT22;15243;50.726;7.080;2023-03-29T09:40:22;12.40;1.00
27900;DHT22;15243;50.726;7.080;2023-03-29T09:42:51;12.40;1.00
27900;DHT22;15243;50.726;7.080;2023-03-29T09:45:19;12.20;1.00
27900;DHT22;15243;50.726;7.080;2023-03-29T09:47:53;12.10;1.00
27900;DHT22;15243;50.726;7.080;2023-03-29T09:50:25;12.20;1.00
27900;DHT22;15243;50.726;7.080;2023-03-29T09:52:58;12.50;1.00
27900;DHT22;15243;50.726;7.080;2023-03-29T09:55:28;12.60;1.00
27900;DHT22;15243;50.726;7.080;2023-03-29T09:58:00;12.50;1.00
27900;DHT22;15243;50.726;7.080;2023-03-29T10:00:27;12.50;1.00
27900;DHT22;15243;50.726;7.080;2023-03-29T10:02:56;12.50;1.00
27900;DHT22;15243;50.726;7.080;2023-03-29T10:05:25;12.50;1.00
27900;DHT22;15243;50.726;7.080;2023-03-29T10:07:58;12.70;1.00
27900;DHT22;15243;50.726;7.080;2023-03-29T10:10:30;12.90;1.00
27900;DHT22;15243;50.726;7.080;2023-03-29T10:13:03;13.10;1.00
27900;DHT22;15243;50.726;7.080;2023-03-29T10:15:31;13.30;1.00
27900;DHT22;15243;50.726;7.080;2023-03-29T10:18:11;13.10;99.90
27900;DHT22;15243;50.726;7.080;2023-03-29T10:20:39;13.20;99.90
27900;DHT22;15243;50.726;7.080;2023-03-29T10:23:07;12.80;1.00
27900;DHT22;15243;50.726;7.080;2023-03-29T10:25:37;12.70;1.00
27900;DHT22;15243;50.726;7.080;2023-03-29T10:28:14;13.00;1.00
27900;DHT22;15243;50.726;7.080;2023-03-29T10:30:46;12.90;1.00
27900;DHT22;15243;50.726;7.080;2023-03-29T10:33:19;13.20;1.00
27900;DHT22;15243;50.726;7.080;2023-03-29T10:35:47;13.40;1.00
27900;DHT22;15243;50.726;7.080;2023-03-29T10:38:19;13.30;1.00
27900;DHT22;15243;50.726;7.080;2023-03-29T10:40:51;13.60;1.00
27900;DHT22;15243;50.726;7.080;2023-03-29T10:43:22;14.00;1.00
27900;DHT22;15243;50.726;7.080;2023-03-29T10:45:53;13.90;99.90
27900;DHT22;15243;50.726;7.080;2023-03-29T10:48:27;13.90;1.00
27900;DHT22;15243;50.726;7.080;2023-03-29T10:50:59;14.30;1.00
27900;DHT22;15243;50.726;7.080;2023-03-29T10:53:31;14.50;1.00
27900;DHT22;15243;50.726;7.080;2023-03-29T10:56:08;14.70;1.00
27900;DHT22;15243;50.726;7.080;2023-03-29T11:01:20;14.40;1.00
27900;DHT22;15243;50.726;7.080;2023-03-29T11:08:58;14.30;1.00
27900;DHT22;15243;50.726;7.080;2023-03-29T11:20:44;14.70;1.00
27900;DHT22;15243;50.726;7.080;2023-03-29T11:28:51;15.20;1.00
27900;DHT22;15243;50.726;7.080;2023-03-29T11:34:02;14.60;1.00
27900;DHT22;15243;50.726;7.080;2023-03-29T11:36:40;15.00;1.00
27900;DHT22;15243;50.726;7.080;2023-03-29T11:42:15;14.80;1.00
27900;DHT22;15243;50.726;7.080;2023-03-29T11:44:45;15.20;1.00
27900;DHT22;15243;50.726;7.080;2023-03-29T11:47:15;15.30;1.00
27900;DHT22;15243;50.726;7.080;2023-03-29T11:49:47;15.40;1.00
27900;DHT22;15243;50.726;7.080;2023-03-29T11:52:29;15.30;1.00
27900;DHT22;15243;50.726;7.080;2023-03-29T11:55:10;15.20;1.00
27900;DHT22;15243;50.726;7.080;2023-03-29T11:57:43;14.90;1.00
27900;DHT22;15243;50.726;7.080;2023-03-29T12:00:19;15.10;1.00
27900;DHT22;15243;50.726;7.080;2023-03-29T12:05:57;15.10;1.00
27900;DHT22;15243;50.726;7.080;2023-03-29T12:08:29;15.20;1.00
27900;DHT22;15243;50.726;7.080;2023-03-29T12:11:18;15.30;1.00
27900;DHT22;15243;50.726;7.080;2023-03-29T12:13:54;15.50;1.00
27900;DHT22;15243;50.726;7.080;2023-03-29T12:16:28;15.50;1.00
27900;DHT22;15243;50.726;7.080;2023-03-29T12:19:04;15.60;1.00
27900;DHT22;15243;50.726;7.080;2023-03-29T12:21:37;15.40;1.00
27900;DHT22;15243;50.726;7.080;2023-03-29T12:24:10;15.50;1.00
27900;DHT22;15243;50.726;7.080;2023-03-29T12:35:26;16.40;99.90
27900;DHT22;15243;50.726;7.080;2023-03-29T12:40:24;16.10;99.90
27900;DHT22;15243;50.726;7.080;2023-03-29T12:42:59;16.30;99.90
27900;DHT22;15243;50.726;7.080;2023-03-29T12:45:35;16.60;99.90
27900;DHT22;15243;50.726;7.080;2023-03-29T12:48:03;16.50;99.90
27900;DHT22;15243;50.726;7.080;2023-03-29T12:50:41;16.80;99.90
27900;DHT22;15243;50.726;7.080;2023-03-29T12:53:18;16.80;99.90
27900;DHT22;15243;50.726;7.080;2023-03-29T12:55:53;16.70;99.90
27900;DHT22;15243;50.726;7.080;2023-03-29T13:06:33;16.90;99.90
27900;DHT22;15243;50.726;7.080;2023-03-29T13:09:03;17.00;99.90
27900;DHT22;15243;50.726;7.080;2023-03-29T13:11:32;17.10;99.90
27900;DHT22;15243;50.726;7.080;2023-03-29T13:14:01;17.60;99.90
27900;DHT22;15243;50.726;7.080;2023-03-29T13:16:32;17.90;99.90
27900;DHT22;15243;50.726;7.080;2023-03-29T13:51:02;17.40;99.90
27900;DHT22;15243;50.726;7.080;2023-03-29T13:53:40;17.20;99.90
27900;DHT22;15243;50.726;7.080;2023-03-29T13:56:16;17.30;99.90
27900;DHT22;15243;50.726;7.080;2023-03-29T13:58:47;17.60;99.90
27900;DHT22;15243;50.726;7.080;2023-03-29T14:01:42;17.40;99.90
27900;DHT22;15243;50.726;7.080;2023-03-29T14:04:20;17.40;99.90
27900;DHT22;15243;50.726;7.080;2023-03-29T14:06:53;17.40;99.90
27900;DHT22;15243;50.726;7.080;2023-03-29T14:09:24;17.80;99.90
27900;DHT22;15243;50.726;7.080;2023-03-29T14:11:53;17.80;99.90
27900;DHT22;15243;50.726;7.080;2023-03-29T14:14:22;17.40;99.90
27900;DHT22;15243;50.726;7.080;2023-03-29T14:16:50;17.40;99.90
27900;DHT22;15243;50.726;7.080;2023-03-29T14:19:34;17.50;99.90
27900;DHT22;15243;50.726;7.080;2023-03-29T14:22:08;17.30;99.90
27900;DHT22;15243;50.726;7.080;2023-03-29T14:24:44;17.40;99.90
27900;DHT22;15243;50.726;7.080;2023-03-29T14:27:14;17.50;99.90
27900;DHT22;15243;50.726;7.080;2023-03-29T14:29:44;17.80;99.90
27900;DHT22;15243;50.726;7.080;2023-03-29T14:32:17;17.80;99.90
27900;DHT22;15243;50.726;7.080;2023-03-29T14:34:48;17.80;99.90
27900;DHT22;15243;50.726;7.080;2023-03-29T14:37:22;17.90;99.90
27900;DHT22;15243;50.726;7.080;2023-03-29T14:39:49;18.30;99.90
27900;DHT22;15243;50.726;7.080;2023-03-29T14:42:23;18.30;99.90
27900;DHT22;15243;50.726;7.080;2023-03-29T14:45:00;18.60;99.90
27900;DHT22;15243;50.726;7.080;2023-03-29T14:47:30;18.50;99.90
27900;DHT22;15243;50.726;7.080;2023-03-29T14:49:59;18.20;99.90
27900;DHT22;15243;50.726;7.080;2023-03-29T14:52:28;18.00;99.90
27900;DHT22;15243;50.726;7.080;2023-03-29T14:54:58;17.70;99.90
27900;DHT22;15243;50.726;7.080;2023-03-29T14:57:33;17.40;99.90
27900;DHT22;15243;50.726;7.080;2023-03-29T15:02:58;17.10;99.90
27900;DHT22;15243;50.726;7.080;2023-03-29T15:05:37;17.10;99.90
27900;DHT22;15243;50.726;7.080;2023-03-29T15:08:06;17.10;99.90
27900;DHT22;15243;50.726;7.080;2023-03-29T15:10:37;17.20;99.90
27900;DHT22;15243;50.726;7.080;2023-03-29T15:13:06;17.20;99.90
27900;DHT22;15243;50.726;7.080;2023-03-29T15:15:35;17.40;99.90
27900;DHT22;15243;50.726;7.080;2023-03-29T15:18:05;17.60;99.90
27900;DHT22;15243;50.726;7.080;2023-03-29T15:20:37;17.30;99.90
27900;DHT22;15243;50.726;7.080;2023-03-29T15:23:21;17.30;99.90
27900;DHT22;15243;50.726;7.080;2023-03-29T15:28:29;17.00;99.90
27900;DHT22;15243;50.726;7.080;2023-03-29T15:31:08;17.00;99.90
27900;DHT22;15243;50.726;7.080;2023-03-29T15:33:38;17.20;99.90
27900;DHT22;15243;50.726;7.080;2023-03-29T15:36:07;17.30;99.90
27900;DHT22;15243;50.726;7.080;2023-03-29T15:38:38;17.10;99.90
27900;DHT22;15243;50.726;7.080;2023-03-29T15:41:12;17.10;99.90
27900;DHT22;15243;50.726;7.080;2023-03-29T15:43:39;17.00;99.90
27900;DHT22;15243;50.726;7.080;2023-03-29T15:46:07;17.00;99.90
27900;DHT22;15243;50.726;7.080;2023-03-29T15:48:34;16.80;99.90
27900;DHT22;15243;50.726;7.080;2023-03-29T15:51:01;16.90;99.90
27900;DHT22;15243;50.726;7.080;2023-03-29T15:53:32;16.70;99.90
27900;DHT22;15243;50.726;7.080;2023-03-29T15:56:00;16.60;99.90
27900;DHT22;15243;50.726;7.080;2023-03-29T15:58:30;16.60;99.90
27900;DHT22;15243;50.726;7.080;2023-03-29T16:03:49;16.50;99.90
27900;DHT22;15243;50.726;7.080;2023-03-29T16:06:16;16.60;99.90
27900;DHT22;15243;50.726;7.080;2023-03-29T16:08:43;16.60;99.90
27900;DHT22;15243;50.726;7.080;2023-03-29T16:11:11;16.60;99.90
27900;DHT22;15243;50.726;7.080;2023-03-29T16:13:38;16.70;99.90
27900;DHT22;15243;50.726;7.080;2023-03-29T16:16:07;16.70;99.90
27900;DHT22;15243;50.726;7.080;2023-03-29T16:18:35;16.80;99.90
27900;DHT22;15243;50.726;7.080;2023-03-29T16:21:02;16.80;99.90
27900;DHT22;15243;50.726;7.080;2023-03-29T16:23:29;16.70;99.90
27900;DHT22;15243;50.726;7.080;2023-03-29T16:25:56;16.70;99.90
27900;DHT22;15243;50.726;7.080;2023-03-29T16:28:24;16.70;99.90
27900;DHT22;15243;50.726;7.080;2023-03-29T16:30:51;16.80;99.90
27900;DHT22;15243;50.726;7.080;2023-03-29T16:33:18;16.90;99.90
27900;DHT22;15243;50.726;7.080;2023-03-29T16:35:45;16.70;99.90
27900;DHT22;15243;50.726;7.080;2023-03-29T16:38:12;16.60;99.90
27900;DHT22;15243;50.726;7.080;2023-03-29T16:40:39;16.40;99.90
27900;DHT22;15243;50.726;7.080;2023-03-29T16:43:11;16.30;99.90
27900;DHT22;15243;50.726;7.080;2023-03-29T16:45:38;16.40;99.90
27900;DHT22;15243;50.726;7.080;2023-03-29T16:48:05;16.30;99.90
27900;DHT22;15243;50.726;7.080;2023-03-29T16:50:32;16.20;99.90
27900;DHT22;15243;50.726;7.080;2023-03-29T16:52:59;16.20;99.90
27900;DHT22;15243;50.726;7.080;2023-03-29T16:55:26;16.20;99.90
27900;DHT22;15243;50.726;7.080;2023-03-29T16:57:53;16.20;99.90
27900;DHT22;15243;50.726;7.080;2023-03-29T17:00:20;16.10;99.90
27900;DHT22;15243;50.726;7.080;2023-03-29T17:02:47;16.10;99.90
27900;DHT22;15243;50.726;7.080;2023-03-29T17:05:18;16.20;99.90
27900;DHT22;15243;50.726;7.080;2023-03-29T17:07:45;16.10;99.90
27900;DHT22;15243;50.726;7.080;2023-03-29T17:10:13;16.00;99.90
27900;DHT22;15243;50.726;7.080;2023-03-29T17:12:39;15.90;99.90
27900;DHT22;15243;50.726;7.080;2023-03-29T17:15:07;15.90;99.90
27900;DHT22;15243;50.726;7.080;2023-03-29T17:17:35;15.90;99.90
27900;DHT22;15243;50.726;7.080;2023-03-29T17:20:05;15.80;99.90
27900;DHT22;15243;50.726;7.080;2023-03-29T17:22:34;15.80;99.90
27900;DHT22;15243;50.726;7.080;2023-03-29T17:25:01;15.70;99.90
27900;DHT22;15243;50.726;7.080;2023-03-29T17:27:33;15.70;99.90
27900;DHT22;15243;50.726;7.080;2023-03-29T17:30:00;15.70;99.90
27900;DHT22;15243;50.726;7.080;2023-03-29T17:32:27;15.60;99.90
27900;DHT22;15243;50.726;7.080;2023-03-29T17:34:54;15.60;99.90
27900;DHT22;15243;50.726;7.080;2023-03-29T17:37:21;15.40;99.90
27900;DHT22;15243;50.726;7.080;2023-03-29T17:39:48;15.40;99.90
27900;DHT22;15243;50.726;7.080;2023-03-29T17:42:15;15.30;99.90
27900;DHT22;15243;50.726;7.080;2023-03-29T17:44:42;15.20;99.90
27900;DHT22;15243;50.726;7.080;2023-03-29T17:47:09;15.20;99.90
27900;DHT22;15243;50.726;7.080;2023-03-29T17:49:36;15.10;99.90
27900;DHT22;15243;50.726;7.080;2023-03-29T17:52:03;15.00;99.90
27900;DHT22;15243;50.726;7.080;2023-03-29T17:54:30;14.90;99.90
27900;DHT22;15243;50.726;7.080;2023-03-29T17:56:57;14.90;99.90
27900;DHT22;15243;50.726;7.080;2023-03-29T17:59:24;14.80;99.90
27900;DHT22;15243;50.726;7.080;2023-03-29T18:01:51;14.80;99.90
27900;DHT22;15243;50.726;7.080;2023-03-29T18:07:30;14.60;99.90
27900;DHT22;15243;50.726;7.080;2023-03-29T18:09:57;14.60;99.90
27900;DHT22;15243;50.726;7.080;2023-03-29T18:12:25;14.50;99.90
27900;DHT22;15243;50.726;7.080;2023-03-29T18:14:52;14.40;99.90
27900;DHT22;15243;50.726;7.080;2023-03-29T18:17:21;14.40;99.90
27900;DHT22;15243;50.726;7.080;2023-03-29T18:19:48;14.40;99.90